Time;durP1;ratioP1;P1;durP2;ratioP2;P2;SDS_P1;SDS_P2;PMS_P1;PMS_P2;Temp;Humidity;BMP_temperature;BMP_pressure;BME280_temperature;BME280_humidity;BME280_pressure;Samples;Min_cycle;Max_cycle;Signal;HPM_P1;HPM_P2
2023/05/30 00:02:20;;;;;;;0.10;0.10;;;;;;;;;;5071873;28;20274;-69
2023/05/30 00:04:46;;;;;;;0.10;0.10;;;;;;;;;;5066606;28;20456;-70
2023/05/30 00:07:13;;;;;;;0.10;0.10;;;;;;;;;;5071686;28;20511;-69
2023/05/30 00:09:39;;;;;;;0.10;0.10;;;;;;;;;;5066301;28;20216;-69
2023/05/30 00:12:06;;;;;;;0.10;0.10;;;;;;;;;;5071187;28;20261;-69
2023/05/30 00:14:36;;;;;;;0.10;0.10;;;;;;;;;;5066574;28;20227;-68
2023/05/30 00:17:03;;;;;;;0.10;0.10;;;;;;;;;;5070874;28;20325;-69
2023/05/30 00:19:31;;;;;;;0.10;0.10;;;;;;;;;;5066585;28;20242;-69
2023/05/30 00:21:57;;;;;;;0.05;0.05;;;;;;;;;;5070091;28;20239;-68
2023/05/30 00:24:25;;;;;;;0.00;0.00;;;;;;;;;;5067118;28;20209;-69
2023/05/30 00:26:52;;;;;;;0.10;0.10;;;;;;;;;;5069098;28;20249;-69
2023/05/30 00:29:18;;;;;;;0.10;0.10;;;;;;;;;;5067732;28;20480;-69
2023/05/30 00:31:46;;;;;;;0.10;0.10;;;;;;;;;;5067264;28;20302;-69
2023/05/30 00:34:12;;;;;;;0.05;0.05;;;;;;;;;;5068966;28;20455;-69
2023/05/30 00:36:38;;;;;;;0.10;0.10;;;;;;;;;;5067416;28;20246;-69
2023/05/30 00:39:05;;;;;;;0.00;0.00;;;;;;;;;;5069364;28;20241;-69
2023/05/30 00:41:31;;;;;;;0.10;0.10;;;;;;;;;;5066114;28;20239;-69
2023/05/30 00:43:58;;;;;;;0.10;0.10;;;;;;;;;;5070254;28;20279;-69
2023/05/30 00:46:29;;;;;;;0.00;0.00;;;;;;;;;;5065304;28;20267;-69
2023/05/30 00:48:57;;;;;;;0.10;0.10;;;;;;;;;;5070438;28;20230;-69
2023/05/30 00:51:24;;;;;;;0.10;0.10;;;;;;;;;;5065237;28;20652;-69
2023/05/30 00:53:51;;;;;;;0.10;0.10;;;;;;;;;;5071254;28;20204;-69
2023/05/30 00:56:18;;;;;;;0.10;0.10;;;;;;;;;;5064375;28;20241;-68
2023/05/30 00:58:45;;;;;;;0.10;0.10;;;;;;;;;;5071932;28;20221;-69
2023/05/30 01:01:12;;;;;;;0.08;0.08;;;;;;;;;;5063317;28;20245;-68
2023/05/30 01:03:39;;;;;;;0.10;0.10;;;;;;;;;;5072796;28;20275;-69
2023/05/30 01:06:09;;;;;;;0.05;0.05;;;;;;;;;;5062450;28;20246;-70
2023/05/30 01:08:35;;;;;;;0.23;0.23;;;;;;;;;;5072943;28;20422;-69
2023/05/30 01:11:07;;;;;;;0.10;0.10;;;;;;;;;;5062087;28;20239;-68
2023/05/30 01:13:36;;;;;;;0.10;0.10;;;;;;;;;;5072906;28;20267;-69
2023/05/30 01:16:04;;;;;;;0.10;0.10;;;;;;;;;;5062080;28;20242;-68
2023/05/30 01:18:34;;;;;;;0.10;0.10;;;;;;;;;;5073362;28;20200;-68
2023/05/30 01:21:03;;;;;;;0.10;0.10;;;;;;;;;;5061832;28;20257;-68
2023/05/30 01:23:43;;;;;;;0.10;0.10;;;;;;;;;;5073136;28;20238;-68
2023/05/30 01:26:18;;;;;;;0.10;0.10;;;;;;;;;;5062735;28;20311;-68
2023/05/30 01:28:47;;;;;;;0.00;0.00;;;;;;;;;;5070941;28;20223;-68
2023/05/30 01:31:14;;;;;;;0.10;0.10;;;;;;;;;;5063256;28;20545;-68
2023/05/30 01:33:42;;;;;;;0.10;0.10;;;;;;;;;;5071784;28;20440;-68
2023/05/30 01:36:10;;;;;;;0.00;0.00;;;;;;;;;;5062455;28;20251;-68
2023/05/30 01:38:37;;;;;;;0.10;0.10;;;;;;;;;;5072230;28;20416;-68
2023/05/30 01:41:05;;;;;;;0.10;0.10;;;;;;;;;;5061562;28;20249;-68
2023/05/30 01:43:39;;;;;;;0.10;0.10;;;;;;;;;;5072518;28;20403;-68
2023/05/30 01:46:09;;;;;;;0.10;0.10;;;;;;;;;;5061886;28;20443;-68
2023/05/30 01:48:40;;;;;;;0.10;0.10;;;;;;;;;;5071856;28;20289;-68
2023/05/30 01:51:08;;;;;;;0.10;0.10;;;;;;;;;;5061835;28;20237;-68
2023/05/30 01:53:37;;;;;;;0.10;0.10;;;;;;;;;;5072298;28;20262;-68
2023/05/30 01:56:04;;;;;;;0.10;0.10;;;;;;;;;;5061391;28;20365;-68
2023/05/30 01:58:33;;;;;;;0.10;0.10;;;;;;;;;;5072351;28;20405;-68
2023/05/30 02:01:00;;;;;;;0.10;0.10;;;;;;;;;;5060904;28;20347;-68
2023/05/30 02:03:30;;;;;;;0.00;0.00;;;;;;;;;;5072755;28;20206;-68
2023/05/30 02:05:56;;;;;;;0.00;0.00;;;;;;;;;;5060223;28;20256;-68
2023/05/30 02:08:22;;;;;;;0.10;0.10;;;;;;;;;;5073148;28;20226;-68
2023/05/30 02:10:49;;;;;;;0.10;0.10;;;;;;;;;;5059146;28;20258;-69
2023/05/30 02:13:15;;;;;;;0.10;0.10;;;;;;;;;;5074065;28;20219;-68
2023/05/30 02:15:42;;;;;;;0.07;0.07;;;;;;;;;;5058059;28;20255;-69
2023/05/30 02:18:09;;;;;;;0.10;0.10;;;;;;;;;;5075188;28;20188;-68
2023/05/30 02:20:37;;;;;;;0.10;0.10;;;;;;;;;;5057447;28;20421;-68
2023/05/30 02:23:04;;;;;;;0.03;0.03;;;;;;;;;;5075957;28;20278;-68
2023/05/30 02:25:30;;;;;;;0.10;0.10;;;;;;;;;;5056658;28;20266;-68
2023/05/30 02:27:56;;;;;;;0.10;0.10;;;;;;;;;;5076425;28;20262;-69
2023/05/30 02:30:23;;;;;;;0.10;0.10;;;;;;;;;;5055412;28;20204;-68
2023/05/30 02:32:49;;;;;;;0.10;0.10;;;;;;;;;;5077220;28;20266;-68
2023/05/30 02:35:15;;;;;;;0.10;0.10;;;;;;;;;;5054478;28;20271;-69
2023/05/30 02:37:43;;;;;;;0.10;0.10;;;;;;;;;;5078068;28;20203;-68
2023/05/30 02:40:10;;;;;;;0.10;0.10;;;;;;;;;;5053691;28;20242;-69
2023/05/30 02:42:37;;;;;;;0.10;0.10;;;;;;;;;;5078993;28;20498;-68
2023/05/30 02:45:04;;;;;;;0.10;0.10;;;;;;;;;;5063630;28;20275;-68
2023/05/30 02:47:30;;;;;;;0.10;0.10;;;;;;;;;;5068879;28;20238;-68
2023/05/30 02:49:56;;;;;;;0.10;0.10;;;;;;;;;;5063677;28;20235;-68
2023/05/30 02:52:23;;;;;;;0.10;0.10;;;;;;;;;;5069000;28;20241;-68
2023/05/30 02:54:51;;;;;;;0.10;0.10;;;;;;;;;;5063191;28;20244;-68
2023/05/30 02:57:19;;;;;;;0.10;0.10;;;;;;;;;;5068924;28;20501;-68
2023/05/30 02:59:45;;;;;;;0.10;0.10;;;;;;;;;;5063355;28;20229;-68
2023/05/30 03:02:11;;;;;;;0.10;0.10;;;;;;;;;;5068850;28;20477;-68
2023/05/30 03:04:38;;;;;;;0.10;0.10;;;;;;;;;;5063407;28;20233;-68
2023/05/30 03:07:07;;;;;;;0.10;0.10;;;;;;;;;;5068350;28;20264;-68
2023/05/30 03:09:34;;;;;;;0.10;0.10;;;;;;;;;;5063593;28;20251;-68
2023/05/30 03:12:02;;;;;;;0.10;0.10;;;;;;;;;;5067741;28;20295;-68
2023/05/30 03:14:28;;;;;;;0.10;0.10;;;;;;;;;;5064048;28;20235;-68
2023/05/30 03:16:56;;;;;;;0.10;0.10;;;;;;;;;;5066983;28;20464;-68
2023/05/30 03:19:22;;;;;;;0.50;0.50;;;;;;;;;;5064906;28;20214;-68
2023/05/30 03:21:49;;;;;;;0.10;0.10;;;;;;;;;;5066068;28;20302;-68
2023/05/30 03:24:16;;;;;;;0.10;0.10;;;;;;;;;;5065886;28;20505;-68
2023/05/30 03:26:42;;;;;;;0.10;0.10;;;;;;;;;;5065214;28;20546;-68
2023/05/30 03:29:10;;;;;;;0.10;0.10;;;;;;;;;;5066177;28;20269;-68
2023/05/30 03:31:39;;;;;;;0.10;0.10;;;;;;;;;;5064413;28;20257;-67
2023/05/30 03:34:05;;;;;;;0.10;0.10;;;;;;;;;;5067117;28;20217;-68
2023/05/30 03:36:31;;;;;;;0.10;0.10;;;;;;;;;;5063703;28;20244;-68
2023/05/30 03:38:58;;;;;;;0.20;0.20;;;;;;;;;;5067873;28;20236;-68
2023/05/30 03:41:24;;;;;;;0.10;0.10;;;;;;;;;;5062827;28;20263;-68
2023/05/30 03:43:51;;;;;;;0.00;0.00;;;;;;;;;;5068510;28;20205;-68
2023/05/30 03:46:19;;;;;;;0.10;0.10;;;;;;;;;;5061838;28;20309;-68
2023/05/30 03:48:45;;;;;;;0.10;0.10;;;;;;;;;;5069191;28;20220;-68
2023/05/30 03:51:12;;;;;;;0.10;0.10;;;;;;;;;;5061071;28;20317;-68
2023/05/30 03:53:39;;;;;;;0.10;0.10;;;;;;;;;;5070405;28;20243;-68
2023/05/30 03:56:06;;;;;;;0.10;0.10;;;;;;;;;;5060136;28;20241;-68
2023/05/30 03:58:33;;;;;;;0.10;0.10;;;;;;;;;;5070955;28;20266;-68
2023/05/30 04:01:01;;;;;;;0.10;0.10;;;;;;;;;;5059084;28;20259;-68
2023/05/30 04:03:29;;;;;;;0.10;0.10;;;;;;;;;;5071520;28;20278;-68
2023/05/30 04:05:58;;;;;;;0.10;0.10;;;;;;;;;;5057662;28;20239;-68
2023/05/30 04:08:24;;;;;;;0.10;0.10;;;;;;;;;;5076611;28;20207;-68
2023/05/30 04:10:51;;;;;;;0.10;0.10;;;;;;;;;;5061494;28;20237;-68
2023/05/30 04:13:17;;;;;;;0.10;0.10;;;;;;;;;;5076480;28;20311;-67
2023/05/30 04:15:43;;;;;;;0.10;0.10;;;;;;;;;;5060568;28;20244;-67
2023/05/30 04:18:10;;;;;;;0.10;0.10;;;;;;;;;;5077105;28;20286;-68
2023/05/30 04:20:38;;;;;;;0.20;0.20;;;;;;;;;;5059717;28;20240;-68
2023/05/30 04:23:04;;;;;;;0.10;0.10;;;;;;;;;;5077931;28;20575;-68
2023/05/30 04:25:31;;;;;;;0.10;0.10;;;;;;;;;;5059272;28;20251;-69
2023/05/30 04:27:58;;;;;;;0.50;0.50;;;;;;;;;;5078234;28;20192;-69
2023/05/30 04:30:24;;;;;;;0.10;0.10;;;;;;;;;;5057917;28;20295;-68
2023/05/30 04:32:52;;;;;;;0.10;0.10;;;;;;;;;;5079109;28;20201;-68
2023/05/30 04:35:19;;;;;;;0.10;0.10;;;;;;;;;;5057314;28;20283;-68
2023/05/30 04:37:48;;;;;;;0.20;0.20;;;;;;;;;;5079690;28;20202;-68
2023/05/30 04:40:15;;;;;;;0.10;0.10;;;;;;;;;;5056697;28;20491;-68
2023/05/30 04:42:42;;;;;;;0.10;0.10;;;;;;;;;;5080228;28;20201;-68
2023/05/30 04:45:08;;;;;;;0.10;0.10;;;;;;;;;;5057138;28;20431;-68
2023/05/30 04:47:36;;;;;;;0.10;0.10;;;;;;;;;;5081120;28;20216;-68
2023/05/30 04:50:02;;;;;;;0.10;0.10;;;;;;;;;;5065587;28;20270;-68
2023/05/30 04:52:29;;;;;;;0.10;0.10;;;;;;;;;;5070881;28;20300;-68
2023/05/30 04:54:57;;;;;;;0.10;0.10;;;;;;;;;;5065761;28;20211;-68
2023/05/30 04:57:23;;;;;;;0.10;0.10;;;;;;;;;;5070842;28;20303;-68
2023/05/30 04:59:50;;;;;;;0.10;0.10;;;;;;;;;;5065304;28;20260;-69
2023/05/30 05:02:17;;;;;;;0.10;0.10;;;;;;;;;;5070750;28;20513;-68
2023/05/30 05:04:43;;;;;;;0.10;0.10;;;;;;;;;;5065646;28;20238;-68
2023/05/30 05:07:10;;;;;;;0.10;0.10;;;;;;;;;;5070630;28;20443;-68
2023/05/30 05:09:36;;;;;;;0.10;0.10;;;;;;;;;;5065511;28;20298;-68
2023/05/30 05:12:04;;;;;;;0.10;0.10;;;;;;;;;;5069837;28;20242;-68
2023/05/30 05:14:30;;;;;;;0.10;0.10;;;;;;;;;;5065635;28;20216;-68
2023/05/30 05:16:57;;;;;;;0.10;0.10;;;;;;;;;;5068647;28;20494;-68
2023/05/30 05:19:23;;;;;;;0.10;0.10;;;;;;;;;;5066601;28;20200;-68
2023/05/30 05:21:50;;;;;;;0.10;0.10;;;;;;;;;;5068034;28;20241;-68
2023/05/30 05:24:16;;;;;;;0.10;0.10;;;;;;;;;;5067120;28;20275;-68
2023/05/30 05:26:43;;;;;;;0.10;0.10;;;;;;;;;;5066970;28;20242;-68
2023/05/30 05:29:11;;;;;;;0.10;0.10;;;;;;;;;;5067836;28;20231;-68
2023/05/30 05:31:37;;;;;;;0.10;0.10;;;;;;;;;;5066240;28;20249;-68
2023/05/30 05:34:04;;;;;;;0.20;0.20;;;;;;;;;;5068514;28;20214;-68
2023/05/30 05:36:30;;;;;;;9.73;8.90;;;;;;;;;;5065315;28;20347;-68
2023/05/30 05:38:57;;;;;;;0.10;0.10;;;;;;;;;;5069615;28;20566;-68
2023/05/30 05:41:23;;;;;;;0.10;0.10;;;;;;;;;;5064291;28;20280;-68
2023/05/30 05:43:49;;;;;;;0.10;0.10;;;;;;;;;;5070226;28;20215;-68
2023/05/30 05:46:17;;;;;;;0.10;0.10;;;;;;;;;;5063335;28;20240;-68
2023/05/30 05:48:43;;;;;;;0.10;0.10;;;;;;;;;;5071152;28;20277;-68
2023/05/30 05:51:11;;;;;;;0.10;0.10;;;;;;;;;;5062217;28;20240;-68
2023/05/30 05:53:37;;;;;;;0.10;0.10;;;;;;;;;;5071972;28;20238;-68
2023/05/30 05:56:03;;;;;;;0.10;0.10;;;;;;;;;;5061361;28;20306;-68
2023/05/30 05:58:30;;;;;;;0.10;0.10;;;;;;;;;;5072405;28;20291;-67
2023/05/30 06:00:56;;;;;;;0.30;0.30;;;;;;;;;;5059870;28;20238;-68
2023/05/30 06:03:24;;;;;;;0.10;0.10;;;;;;;;;;5074060;28;20240;-68
2023/05/30 06:05:50;;;;;;;0.10;0.10;;;;;;;;;;5059370;28;20259;-68
2023/05/30 06:08:16;;;;;;;0.10;0.10;;;;;;;;;;5074360;28;20275;-68
2023/05/30 06:10:43;;;;;;;0.10;0.10;;;;;;;;;;5058321;28;20250;-67
2023/05/30 06:13:09;;;;;;;0.10;0.10;;;;;;;;;;5075235;28;20381;-68
2023/05/30 06:15:36;;;;;;;0.10;0.10;;;;;;;;;;5057337;28;20241;-68
2023/05/30 06:18:02;;;;;;;0.10;0.10;;;;;;;;;;5076154;28;20265;-67
2023/05/30 06:20:30;;;;;;;0.10;0.10;;;;;;;;;;5056652;28;20256;-68
2023/05/30 06:22:56;;;;;;;0.10;0.10;;;;;;;;;;5076925;28;20486;-68
2023/05/30 06:25:22;;;;;;;0.10;0.10;;;;;;;;;;5055510;28;20250;-68
2023/05/30 06:27:49;;;;;;;0.10;0.10;;;;;;;;;;5077588;28;20200;-67
2023/05/30 06:30:15;;;;;;;0.10;0.10;;;;;;;;;;5053667;28;20296;-68
2023/05/30 06:32:42;;;;;;;0.10;0.10;;;;;;;;;;5078208;28;20259;-68
2023/05/30 06:35:09;;;;;;;0.10;0.10;;;;;;;;;;5054828;28;20210;-68
2023/05/30 06:37:36;;;;;;;0.10;0.10;;;;;;;;;;5078884;28;20244;-68
2023/05/30 06:40:03;;;;;;;0.10;0.10;;;;;;;;;;5063985;28;20449;-68
2023/05/30 06:42:33;;;;;;;0.10;0.10;;;;;;;;;;5069066;28;20292;-69
2023/05/30 06:44:59;;;;;;;0.10;0.10;;;;;;;;;;5063622;28;20204;-68
2023/05/30 06:47:25;;;;;;;0.10;0.10;;;;;;;;;;5068904;28;20469;-68
2023/05/30 06:49:52;;;;;;;0.10;0.10;;;;;;;;;;5063690;28;20253;-68
2023/05/30 06:52:18;;;;;;;0.10;0.10;;;;;;;;;;5069005;28;20496;-68
2023/05/30 06:54:46;;;;;;;0.10;0.10;;;;;;;;;;5063750;28;20449;-69
2023/05/30 06:57:13;;;;;;;0.10;0.10;;;;;;;;;;5068927;28;20240;-68
2023/05/30 06:59:39;;;;;;;0.10;0.10;;;;;;;;;;5063700;28;20253;-68
2023/05/30 07:02:05;;;;;;;0.10;0.10;;;;;;;;;;5068502;28;20508;-68
2023/05/30 07:04:32;;;;;;;0.10;0.10;;;;;;;;;;5063907;28;20245;-67
2023/05/30 07:06:58;;;;;;;0.10;0.10;;;;;;;;;;5067541;28;20240;-68
2023/05/30 07:09:26;;;;;;;0.10;0.10;;;;;;;;;;5064388;28;20213;-68
2023/05/30 07:11:53;;;;;;;0.10;0.10;;;;;;;;;;5066623;28;20245;-68
2023/05/30 07:14:20;;;;;;;0.10;0.10;;;;;;;;;;5065183;28;20234;-68
2023/05/30 07:16:46;;;;;;;0.10;0.10;;;;;;;;;;5065616;28;20237;-68
2023/05/30 07:19:13;;;;;;;0.17;0.17;;;;;;;;;;5066523;28;20428;-68
2023/05/30 07:21:39;;;;;;;0.10;0.10;;;;;;;;;;5064776;28;20257;-68
2023/05/30 07:24:05;;;;;;;0.00;0.00;;;;;;;;;;5066840;28;20237;-68
2023/05/30 07:26:32;;;;;;;0.10;0.10;;;;;;;;;;5063852;28;20234;-68
2023/05/30 07:29:00;;;;;;;0.10;0.10;;;;;;;;;;5067629;28;20214;-69
2023/05/30 07:31:26;;;;;;;0.10;0.10;;;;;;;;;;5062972;28;20254;-69
2023/05/30 07:33:52;;;;;;;0.10;0.10;;;;;;;;;;5068397;28;20269;-69
2023/05/30 07:36:19;;;;;;;0.00;0.00;;;;;;;;;;5062221;28;20242;-68
2023/05/30 07:38:45;;;;;;;0.22;0.22;;;;;;;;;;5069483;28;20443;-68
2023/05/30 07:41:12;;;;;;;0.10;0.10;;;;;;;;;;5063578;28;20258;-68
2023/05/30 07:43:38;;;;;;;3.57;3.30;;;;;;;;;;5074321;28;20392;-68
2023/05/30 07:46:06;;;;;;;0.10;0.10;;;;;;;;;;5063878;28;20239;-69
2023/05/30 07:48:32;;;;;;;0.10;0.10;;;;;;;;;;5074826;28;20213;-68
2023/05/30 07:50:59;;;;;;;11.23;0.93;;;;;;;;;;5063071;28;20440;-69
2023/05/30 07:53:25;;;;;;;0.03;0.03;;;;;;;;;;5075484;28;20204;-71
2023/05/30 07:55:52;;;;;;;0.10;0.10;;;;;;;;;;5062094;28;20235;-73
2023/05/30 07:58:18;;;;;;;0.10;0.10;;;;;;;;;;5076273;28;20244;-72
2023/05/30 08:00:44;;;;;;;0.10;0.10;;;;;;;;;;5061059;28;20262;-72
2023/05/30 08:03:12;;;;;;;0.10;0.10;;;;;;;;;;5077261;28;20212;-70
2023/05/30 08:05:38;;;;;;;0.00;0.00;;;;;;;;;;5060308;28;20267;-71
2023/05/30 08:08:06;;;;;;;0.10;0.10;;;;;;;;;;5078152;28;20378;-70
2023/05/30 08:10:33;;;;;;;0.10;0.10;;;;;;;;;;5059438;28;20246;-70
2023/05/30 08:13:00;;;;;;;0.00;0.00;;;;;;;;;;5078525;28;20543;-70
2023/05/30 08:15:35;;;;;;;0.10;0.10;;;;;;;;;;5059256;28;20520;-71
2023/05/30 08:18:02;;;;;;;0.03;0.03;;;;;;;;;;5080817;28;20405;-74
2023/05/30 08:20:30;;;;;;;0.10;0.10;;;;;;;;;;5058682;28;20247;-72
2023/05/30 08:22:58;;;;;;;0.10;0.10;;;;;;;;;;5079090;28;20359;-71
2023/05/30 08:25:25;;;;;;;0.10;0.10;;;;;;;;;;5057992;28;20275;-78
2023/05/30 08:27:51;;;;;;;0.05;0.05;;;;;;;;;;5079107;28;20192;-75
2023/05/30 08:30:18;;;;;;;0.10;0.10;;;;;;;;;;5057001;28;20286;-77
2023/05/30 08:32:44;;;;;;;0.10;0.10;;;;;;;;;;5080372;28;20413;-80
2023/05/30 08:35:10;;;;;;;0.10;0.10;;;;;;;;;;5055961;28;20207;-78
2023/05/30 08:37:38;;;;;;;0.10;0.10;;;;;;;;;;5081123;28;20422;-79
2023/05/30 08:40:06;;;;;;;0.05;0.05;;;;;;;;;;5066059;28;20281;-79
2023/05/30 08:42:32;;;;;;;0.10;0.10;;;;;;;;;;5071124;28;20246;-78
2023/05/30 08:44:59;;;;;;;0.10;0.10;;;;;;;;;;5065913;28;20207;-78
2023/05/30 08:47:25;;;;;;;0.03;0.03;;;;;;;;;;5070880;28;20468;-78
2023/05/30 08:49:52;;;;;;;0.05;0.05;;;;;;;;;;5065463;28;20213;-78
2023/05/30 08:52:19;;;;;;;0.10;0.10;;;;;;;;;;5070097;28;20313;-78
2023/05/30 08:54:49;;;;;;;0.10;0.10;;;;;;;;;;5065441;28;20244;-77
2023/05/30 08:57:19;;;;;;;0.00;0.00;;;;;;;;;;5070763;28;20235;-76
2023/05/30 08:59:46;;;;;;;0.05;0.05;;;;;;;;;;5065269;28;20290;-77
2023/05/30 09:02:13;;;;;;;0.03;0.03;;;;;;;;;;5070645;28;20308;-77
2023/05/30 09:04:40;;;;;;;3.20;1.17;;;;;;;;;;5065213;28;20248;-77
2023/05/30 09:07:07;;;;;;;0.05;0.05;;;;;;;;;;5070436;28;20578;-78
2023/05/30 09:09:34;;;;;;;0.10;0.10;;;;;;;;;;5065206;28;20506;-77
2023/05/30 09:12:02;;;;;;;0.10;0.10;;;;;;;;;;5069511;28;20309;-77
2023/05/30 09:14:28;;;;;;;0.10;0.10;;;;;;;;;;5065827;28;20213;-77
2023/05/30 09:16:55;;;;;;;0.10;0.10;;;;;;;;;;5068725;28;20319;-77
2023/05/30 09:19:22;;;;;;;0.00;0.00;;;;;;;;;;5066871;28;20547;-78
2023/05/30 09:21:48;;;;;;;0.10;0.10;;;;;;;;;;5067828;28;20256;-77
2023/05/30 09:24:15;;;;;;;0.10;0.10;;;;;;;;;;5067695;28;20459;-77
2023/05/30 09:26:55;;;;;;;0.10;0.10;;;;;;;;;;5066782;28;20601;-77
2023/05/30 09:29:23;;;;;;;0.10;0.10;;;;;;;;;;5066461;28;20216;-76
2023/05/30 09:31:50;;;;;;;0.08;0.08;;;;;;;;;;5067821;28;20261;-78
2023/05/30 09:34:18;;;;;;;0.10;0.10;;;;;;;;;;5067040;28;20253;-78
2023/05/30 09:36:53;;;;;;;0.00;0.00;;;;;;;;;;5066939;28;20240;-79
2023/05/30 09:39:19;;;;;;;0.10;0.10;;;;;;;;;;5066571;28;20196;-77
2023/05/30 09:41:46;;;;;;;0.10;0.10;;;;;;;;;;5067149;28;20281;-78
2023/05/30 09:44:13;;;;;;;0.00;0.00;;;;;;;;;;5067439;28;20214;-73
2023/05/30 09:46:40;;;;;;;0.00;0.00;;;;;;;;;;5066164;28;20286;-72
2023/05/30 09:49:11;;;;;;;0.00;0.00;;;;;;;;;;5068356;28;20451;-73
2023/05/30 09:51:38;;;;;;;0.10;0.10;;;;;;;;;;5065792;28;20244;-73
2023/05/30 09:54:05;;;;;;;0.00;0.00;;;;;;;;;;5068263;28;20231;-74
2023/05/30 09:56:33;;;;;;;0.00;0.00;;;;;;;;;;5065173;28;20246;-74
2023/05/30 09:59:02;;;;;;;0.10;0.10;;;;;;;;;;5068660;28;20225;-74
2023/05/30 10:01:35;;;;;;;0.00;0.00;;;;;;;;;;5064520;28;20260;-74
2023/05/30 10:04:10;;;;;;;0.00;0.00;;;;;;;;;;5068800;28;20237;-74
2023/05/30 10:06:40;;;;;;;0.10;0.10;;;;;;;;;;5065341;28;20242;-73
2023/05/30 10:09:07;;;;;;;0.00;0.00;;;;;;;;;;5067836;28;20212;-74
2023/05/30 10:11:33;;;;;;;0.10;0.10;;;;;;;;;;5064932;28;20264;-73
2023/05/30 10:14:00;;;;;;;0.00;0.00;;;;;;;;;;5068485;28;20205;-75
2023/05/30 10:16:29;;;;;;;0.00;0.00;;;;;;;;;;5063981;28;20259;-74
2023/05/30 10:18:56;;;;;;;0.00;0.00;;;;;;;;;;5068980;28;20209;-74
2023/05/30 10:21:25;;;;;;;0.00;0.00;;;;;;;;;;5063466;28;20260;-73
2023/05/30 10:23:53;;;;;;;0.08;0.08;;;;;;;;;;5069687;28;20389;-74
2023/05/30 10:26:21;;;;;;;0.00;0.00;;;;;;;;;;5063065;28;20439;-73
2023/05/30 10:28:50;;;;;;;0.10;0.10;;;;;;;;;;5069696;28;20286;-74
2023/05/30 10:31:17;;;;;;;0.00;0.00;;;;;;;;;;5062370;28;20243;-74
2023/05/30 10:33:49;;;;;;;0.10;0.10;;;;;;;;;;5070493;28;20272;-74
2023/05/30 10:36:15;;;;;;;14.02;0.77;;;;;;;;;;5062205;28;20246;-74
2023/05/30 10:38:47;;;;;;;0.10;0.10;;;;;;;;;;5070714;28;20209;-73
2023/05/30 10:41:17;;;;;;;0.05;0.05;;;;;;;;;;5061951;28;20244;-73
2023/05/30 10:43:48;;;;;;;0.10;0.10;;;;;;;;;;5070149;28;20238;-74
2023/05/30 10:46:20;;;;;;;0.10;0.10;;;;;;;;;;5061873;28;20242;-74
2023/05/30 10:48:50;;;;;;;0.10;0.10;;;;;;;;;;5069970;28;20197;-74
2023/05/30 10:51:16;;;;;;;0.00;0.00;;;;;;;;;;5062065;28;20242;-74
2023/05/30 10:53:44;;;;;;;0.10;0.10;;;;;;;;;;5070134;28;20207;-75
2023/05/30 10:56:29;;;;;;;0.10;0.10;;;;;;;;;;5061403;28;20253;-74
2023/05/30 10:58:56;;;;;;;0.00;0.00;;;;;;;;;;5068536;28;20226;-74
2023/05/30 11:01:22;;;;;;;0.00;0.00;;;;;;;;;;5062819;28;20412;-74
2023/05/30 11:03:49;;;;;;;0.00;0.00;;;;;;;;;;5069516;28;20239;-74
2023/05/30 11:06:15;;;;;;;0.08;0.08;;;;;;;;;;5061838;28;20246;-74
2023/05/30 11:08:42;;;;;;;0.10;0.10;;;;;;;;;;5070053;28;20253;-74
2023/05/30 11:11:17;;;;;;;0.10;0.10;;;;;;;;;;5060826;28;20302;-74
2023/05/30 11:13:44;;;;;;;0.00;0.00;;;;;;;;;;5069817;28;20270;-74
2023/05/30 11:16:21;;;;;;;0.10;0.10;;;;;;;;;;5063813;28;20241;-74
2023/05/30 11:18:49;;;;;;;0.10;0.10;;;;;;;;;;5073583;28;20436;-74
2023/05/30 11:21:16;;;;;;;0.00;0.00;;;;;;;;;;5065969;28;20234;-74
2023/05/30 11:23:57;;;;;;;0.00;0.00;;;;;;;;;;5073800;28;20238;-74
2023/05/30 11:26:45;;;;;;;0.10;0.10;;;;;;;;;;5066653;28;20468;-75
2023/05/30 11:29:27;;;;;;;0.00;0.00;;;;;;;;;;5069818;28;20215;-75
2023/05/30 11:31:53;;;;;;;0.00;0.00;;;;;;;;;;5070003;28;20231;-74
2023/05/30 11:34:20;;;;;;;0.00;0.00;;;;;;;;;;5069500;28;20462;-74
2023/05/30 11:36:47;;;;;;;0.00;0.00;;;;;;;;;;5069436;28;20250;-74
2023/05/30 11:39:13;;;;;;;0.00;0.00;;;;;;;;;;5069574;28;20275;-74
2023/05/30 11:41:41;;;;;;;0.00;0.00;;;;;;;;;;5068593;28;20255;-74
2023/05/30 11:44:08;;;;;;;0.00;0.00;;;;;;;;;;5070582;28;20235;-74
2023/05/30 11:46:34;;;;;;;0.00;0.00;;;;;;;;;;5067702;28;20302;-74
2023/05/30 11:49:03;;;;;;;0.05;0.05;;;;;;;;;;5070982;28;20280;-74
2023/05/30 11:51:31;;;;;;;0.05;0.05;;;;;;;;;;5066930;28;20243;-74
2023/05/30 11:53:58;;;;;;;0.00;0.00;;;;;;;;;;5071450;28;20425;-75
2023/05/30 11:56:27;;;;;;;0.00;0.00;;;;;;;;;;5066070;28;20270;-74
2023/05/30 11:58:54;;;;;;;0.00;0.00;;;;;;;;;;5072402;28;20392;-75
2023/05/30 12:01:21;;;;;;;0.00;0.00;;;;;;;;;;5065489;28;20235;-75
2023/05/30 12:03:47;;;;;;;0.00;0.00;;;;;;;;;;5073245;28;20275;-74
2023/05/30 12:06:14;;;;;;;0.00;0.00;;;;;;;;;;5064866;28;20243;-74
2023/05/30 12:08:41;;;;;;;0.00;0.00;;;;;;;;;;5073281;28;20209;-74
2023/05/30 12:11:07;;;;;;;0.32;0.32;;;;;;;;;;5063763;28;20407;-75
2023/05/30 12:13:33;;;;;;;0.00;0.00;;;;;;;;;;5074437;28;20310;-74
2023/05/30 12:16:03;;;;;;;0.00;0.00;;;;;;;;;;5062712;28;20306;-75
2023/05/30 12:18:29;;;;;;;0.00;0.00;;;;;;;;;;5074930;28;20242;-75
2023/05/30 12:20:55;;;;;;;0.00;0.00;;;;;;;;;;5061956;28;20371;-74
2023/05/30 12:23:23;;;;;;;0.00;0.00;;;;;;;;;;5075373;28;20267;-74
2023/05/30 12:25:50;;;;;;;0.00;0.00;;;;;;;;;;5061270;28;20310;-73
2023/05/30 12:28:16;;;;;;;0.10;0.10;;;;;;;;;;5074714;28;20279;-74
2023/05/30 12:30:43;;;;;;;0.00;0.00;;;;;;;;;;5060245;28;20257;-73
2023/05/30 12:33:14;;;;;;;0.00;0.00;;;;;;;;;;5076861;28;20295;-75
2023/05/30 12:35:41;;;;;;;0.00;0.00;;;;;;;;;;5060026;28;20255;-75
2023/05/30 12:38:08;;;;;;;0.00;0.00;;;;;;;;;;5077384;28;20440;-75
2023/05/30 12:40:34;;;;;;;0.00;0.00;;;;;;;;;;5058905;28;20302;-75
2023/05/30 12:43:01;;;;;;;0.05;0.05;;;;;;;;;;5077850;28;20237;-73
2023/05/30 12:45:27;;;;;;;0.03;0.03;;;;;;;;;;5058249;28;21681;-71
2023/05/30 12:47:53;;;;;;;0.00;0.00;;;;;;;;;;5079002;28;20259;-72
2023/05/30 12:50:21;;;;;;;0.00;0.00;;;;;;;;;;5056835;28;20211;-71
2023/05/30 12:52:47;;;;;;;0.00;0.00;;;;;;;;;;5079317;28;20607;-71
2023/05/30 12:55:14;;;;;;;0.00;0.00;;;;;;;;;;5056269;28;20538;-71
2023/05/30 12:57:40;;;;;;;0.00;0.00;;;;;;;;;;5080459;28;20200;-72
2023/05/30 13:00:08;;;;;;;0.00;0.00;;;;;;;;;;5065649;28;20438;-71
2023/05/30 13:02:36;;;;;;;0.00;0.00;;;;;;;;;;5053880;28;20208;-71
2023/05/30 13:05:03;;;;;;;0.00;0.00;;;;;;;;;;5065382;28;20246;-71
2023/05/30 13:07:31;;;;;;;0.10;0.10;;;;;;;;;;5070767;28;20310;-72
2023/05/30 13:09:57;;;;;;;0.00;0.00;;;;;;;;;;5065271;28;20200;-72
2023/05/30 13:12:26;;;;;;;0.00;0.00;;;;;;;;;;5070506;28;20254;-72
2023/05/30 13:14:53;;;;;;;0.10;0.10;;;;;;;;;;5065436;28;20451;-71
2023/05/30 13:17:19;;;;;;;0.10;0.10;;;;;;;;;;5070453;28;20508;-72
2023/05/30 13:19:45;;;;;;;0.00;0.00;;;;;;;;;;5065326;28;20574;-72
2023/05/30 13:22:13;;;;;;;0.00;0.00;;;;;;;;;;5070446;28;20512;-71
2023/05/30 13:24:40;;;;;;;0.00;0.00;;;;;;;;;;5065335;28;20204;-72
2023/05/30 13:27:07;;;;;;;0.00;0.00;;;;;;;;;;5070087;28;20302;-71
2023/05/30 13:29:33;;;;;;;0.00;0.00;;;;;;;;;;5064893;28;20212;-71
2023/05/30 13:32:00;;;;;;;0.00;0.00;;;;;;;;;;5069031;28;20258;-71
2023/05/30 13:34:26;;;;;;;0.00;0.00;;;;;;;;;;5065697;28;20210;-72
2023/05/30 13:36:53;;;;;;;0.00;0.00;;;;;;;;;;5067966;28;20306;-71
2023/05/30 13:39:19;;;;;;;0.00;0.00;;;;;;;;;;5066159;28;20246;-71
2023/05/30 13:41:51;;;;;;;0.00;0.00;;;;;;;;;;5066953;28;20261;-71
2023/05/30 13:44:17;;;;;;;0.00;0.00;;;;;;;;;;5066723;28;20208;-71
2023/05/30 13:46:44;;;;;;;0.00;0.00;;;;;;;;;;5066928;28;20265;-71
2023/05/30 13:49:10;;;;;;;0.00;0.00;;;;;;;;;;5067432;28;20211;-71
2023/05/30 13:51:37;;;;;;;0.00;0.00;;;;;;;;;;5065058;28;20567;-72
2023/05/30 13:54:05;;;;;;;0.00;0.00;;;;;;;;;;5068210;28;20246;-73
2023/05/30 13:56:31;;;;;;;0.00;0.00;;;;;;;;;;5065031;28;20235;-72
2023/05/30 13:58:59;;;;;;;0.00;0.00;;;;;;;;;;5069023;28;20228;-72
2023/05/30 14:01:26;;;;;;;0.00;0.00;;;;;;;;;;5063824;28;20509;-71
2023/05/30 14:03:56;;;;;;;0.00;0.00;;;;;;;;;;5069670;28;20583;-72
2023/05/30 14:06:25;;;;;;;0.00;0.00;;;;;;;;;;5063705;28;20243;-72
2023/05/30 14:08:52;;;;;;;0.00;0.00;;;;;;;;;;5069442;28;20219;-72
2023/05/30 14:11:18;;;;;;;0.00;0.00;;;;;;;;;;5062948;28;20239;-73
2023/05/30 14:13:45;;;;;;;0.08;0.08;;;;;;;;;;5070515;28;20204;-71
2023/05/30 14:16:13;;;;;;;0.00;0.00;;;;;;;;;;5062091;28;20566;-71
2023/05/30 14:18:40;;;;;;;0.05;0.05;;;;;;;;;;5070936;28;20216;-71
2023/05/30 14:21:07;;;;;;;0.00;0.00;;;;;;;;;;5061438;28;20566;-71
2023/05/30 14:23:35;;;;;;;0.00;0.00;;;;;;;;;;5071954;28;20271;-71
2023/05/30 14:26:01;;;;;;;0.00;0.00;;;;;;;;;;5060676;28;20243;-71
2023/05/30 14:28:31;;;;;;;0.05;0.05;;;;;;;;;;5072188;28;20282;-71
2023/05/30 14:30:57;;;;;;;0.10;0.10;;;;;;;;;;5060068;28;20286;-71
2023/05/30 14:33:25;;;;;;;0.00;0.00;;;;;;;;;;5072956;28;20274;-71
2023/05/30 14:35:52;;;;;;;0.00;0.00;;;;;;;;;;5059152;28;20259;-71
2023/05/30 14:38:19;;;;;;;0.00;0.00;;;;;;;;;;5073419;28;20271;-72
2023/05/30 14:40:45;;;;;;;0.00;0.00;;;;;;;;;;5058211;28;20320;-71
2023/05/30 14:43:12;;;;;;;0.00;0.00;;;;;;;;;;5074153;28;20206;-72
2023/05/30 14:45:38;;;;;;;0.00;0.00;;;;;;;;;;5057420;28;20239;-72